Robert G. Stone, Jr. — WDD4596 — position and weather

sailwx.info

Track history (hours):
 
Tides and Currents Weather Stations Pressure Air Temp Water Temp Dewpoint Dewpoint Depression Visibility Wind Speed Wind Dir Waves Ship Positions

Robert G. Stone, Jr.

Owner: Kirby Inland Marine, LP, Houston, TX. More information available from US FCC via Universal Licensing System and Coast Guard Vessel Documentation Center.

Last reported at 2016-Nov-22 13:34 UTC. Time now 2016-Dec-07 10:38 UTC.
Position N 32°45' W 091°09'.
Warning: this ship's position is 14 days out of date.

Length 118 m; draft 2.7 m.

Type: . MMSI: 367146780.

Date/timePositionNaut miles runAvg speedWind from/ knotsBaromVisibWave heightAir tempDewpointWater temp
2016-Nov-22 13:34N 32°45' W 091°09'10 3.3
2016-Nov-22 10:33N 32°35' W 091°08'5 5.2
2016-Nov-22 09:33N 32°30' W 091°07'6 5.8
2016-Nov-22 08:33N 32°26' W 091°02'4 3.8
2016-Nov-22 07:33N 32°22' W 091°00'6 3.0
2016-Nov-22 05:33N 32°18' W 090°55'0 0.1
2016-Nov-22 04:33N 32°18' W 090°55'5 5.0
2016-Nov-22 03:33N 32°14' W 090°59'6 6.2
2016-Nov-22 02:34N 32°08' W 091°00'  
2016-Nov-19 04:20N 29°48' W 091°49'3 4.4
2016-Nov-19 03:33N 29°51' W 091°52'5 5.2
2016-Nov-19 02:33N 29°50' W 091°58'5 5.1
2016-Nov-19 01:33N 29°49' W 092°04'5 5.0
2016-Nov-19 00:33N 29°47' W 092°09'4 3.5
2016-Nov-18 23:33N 29°48' W 092°13'15 4.7
2016-Nov-18 20:23N 29°54' W 092°29'34 4.3
2016-Nov-18 12:32N 29°56' W 093°08'4 4.1
2016-Nov-18 11:33N 29°58' W 093°12'7 3.4
2016-Nov-18 09:33N 30°04' W 093°16'3 1.5
2016-Nov-18 07:33N 30°06' W 093°19'0 0.0
2016-Nov-18 05:33N 30°06' W 093°19'0 0.0
2016-Nov-18 04:33N 30°06' W 093°19'9 3.1
2016-Nov-18 01:33N 30°04' W 093°29'12 5.3
2016-Nov-17 23:12N 30°03' W 093°43'84 4.9
2016-Nov-17 06:11N 29°14' W 095°02'10 2.8
2016-Nov-17 02:33N 29°14' W 095°13'23 0.5
2016-Nov-15 00:33N 29°22' W 094°48'  
Track history (hours):
 
Tides and Currents Weather Stations Pressure Air Temp Water Temp Dewpoint Dewpoint Depression Visibility Wind Speed Wind Dir Waves Ship Positions

Robert G. Stone, Jr.

Owner: Kirby Inland Marine, LP, Houston, TX. More information available from US FCC via Universal Licensing System and Coast Guard Vessel Documentation Center.

Last reported at 2016-Nov-22 13:34 UTC. Time now 2016-Dec-07 10:38 UTC.
Position N 32°45' W 091°09'.
Warning: this ship's position is 14 days out of date.

Length 118 m; draft 2.7 m.

Type: . MMSI: 367146780.

Date/timePositionNaut miles runAvg speedWind from/ knotsBaromVisibWave heightAir tempDewpointWater temp
2016-Nov-22 13:34N 32°45' W 091°09'10 3.3
2016-Nov-22 10:33N 32°35' W 091°08'5 5.2
2016-Nov-22 09:33N 32°30' W 091°07'6 5.8
2016-Nov-22 08:33N 32°26' W 091°02'4 3.8
2016-Nov-22 07:33N 32°22' W 091°00'6 3.0
2016-Nov-22 05:33N 32°18' W 090°55'0 0.1
2016-Nov-22 04:33N 32°18' W 090°55'5 5.0
2016-Nov-22 03:33N 32°14' W 090°59'6 6.2
2016-Nov-22 02:34N 32°08' W 091°00'  
2016-Nov-19 04:20N 29°48' W 091°49'3 4.4
2016-Nov-19 03:33N 29°51' W 091°52'5 5.2
2016-Nov-19 02:33N 29°50' W 091°58'5 5.1
2016-Nov-19 01:33N 29°49' W 092°04'5 5.0
2016-Nov-19 00:33N 29°47' W 092°09'4 3.5
2016-Nov-18 23:33N 29°48' W 092°13'15 4.7
2016-Nov-18 20:23N 29°54' W 092°29'34 4.3
2016-Nov-18 12:32N 29°56' W 093°08'4 4.1
2016-Nov-18 11:33N 29°58' W 093°12'7 3.4
2016-Nov-18 09:33N 30°04' W 093°16'3 1.5
2016-Nov-18 07:33N 30°06' W 093°19'0 0.0
2016-Nov-18 05:33N 30°06' W 093°19'0 0.0
2016-Nov-18 04:33N 30°06' W 093°19'9 3.1
2016-Nov-18 01:33N 30°04' W 093°29'12 5.3
2016-Nov-17 23:12N 30°03' W 093°43'84 4.9
2016-Nov-17 06:11N 29°14' W 095°02'10 2.8
2016-Nov-17 02:33N 29°14' W 095°13'23 0.5
2016-Nov-15 00:33N 29°22' W 094°48'  

Dump ship's entire track history